Weather observations for the past three days for
Alma, Gratiot Community Airport
Imperial (Metric)
Date Time (edt) Wind (mph) Vis. (mi.) Weather Sky Cond. Temperature (ºF) Relative Humidity Wind Chill (°F) Heat Index (°F) Pressure Precipitation (in)
Air Dwpt 6 hour altimeter (in) sea level (mb) 1 hr 3 hr 6 hr
Max. Min.
02 12:35 S 7 10.00 Fair CLR 84.2 73.4 70% 91 29.94 0.0
02 12:15 S 6 10.00 Fair CLR 84.2 71.6 66% 90 29.95 0.0
02 11:55 S 6 10.00 Fair CLR 84.2 69.8 62% 88 29.94 0.0
02 11:35 W 3 10.00 Fair CLR 84.2 69.8 62% 88 29.95 0.0
02 11:15 Vrbl 2 10.00 Fair CLR 82.4 71.6 70% 87 29.96 0.0
02 10:56 N 3 10.00 Fair CLR 82.4 71.6 70% 87 29.96 0.0
02 10:35 NW 8 10.00 Fair CLR 80.6 73.4 79% 85 29.96 0.0
02 10:15 NW 5 10.00 Partly Cloudy SCT025 SCT055 SCT090 80.6 73.4 79% 85 29.96 0.0
02 09:55 NW 12 G 23 10.00 Partly Cloudy SCT021 SCT055 SCT090 78.8 75.2 89% 82 29.96 0.0
02 09:35 S 6 9.00 Fair CLR 78.8 75.2 89% 82 29.93 0.0
02 09:15 SW 5 9.00 Fair CLR 77 73.4 89% 78 29.93 0.0
02 08:55 SW 6 10.00 Fair CLR 77 73.4 89% 78 29.94 0.0
02 08:15 SW 7 10.00 Fair CLR 73.4 71.6 94% 29.94 0.0
02 07:55 SW 6 10.00 Fair CLR 71.6 71.6 74.8 71.1 100% 29.95 0.0
02 07:35 SW 5 10.00 Fair CLR 71.6 69.8 94% 29.94 0.0
02 07:15 SW 6 10.00 Fair CLR 71.6 69.8 94% 29.94 0.0
02 06:55 SW 6 10.00 Fair CLR 71.6 69.8 94% 29.93 0.0
02 06:35 W 5 10.00 Fair CLR 71.6 69.8 94% 29.94 0.0
02 06:16 W 6 10.00 Partly Cloudy SCT110 73.4 69.8 89% 29.94 0.0
02 05:55 SW 10 10.00 Light Rain FEW075 BKN100 73.4 68 83% 29.95 0.0 0.3
02 05:35 W 13 G 21 8.00 Heavy Rain FEW065 BKN100 BKN120 73.4 69.8 89% 29.95 0.0
02 05:15 NW 5 10.00 Light Rain FEW070 BKN100 BKN120 73.4 71.6 94% 29.93 0.0
02 04:55 W 14 G 20 7.00 Light Rain Fog/Mist FEW080 BKN100 BKN120 73.4 71.6 94% 29.96 0.0 0.01
02 04:35 W 3 9.00 Mostly Cloudy BKN100 BKN120 73.4 71.6 94% 29.94 0.0
02 04:15 SW 6 8.00 A Few Clouds FEW100 71.6 71.6 100% 29.93 0.0
02 03:56 SW 1 10.00 Fair CLR 73.4 71.6 94% 29.93 0.0
02 03:35 SW 5 10.00 A Few Clouds FEW034 73.4 71.6 94% 29.94 0.0
02 03:15 SW 3 10.00 Partly Cloudy SCT036 73.4 71.6 94% 29.93 0.0
02 02:55 S 5 10.00 A Few Clouds FEW037 FEW043 73.4 71.6 94% 29.93 0.0
02 02:35 SW 2 10.00 Mostly Cloudy BKN039 75.2 71.6 89% 75 29.94 0.0
02 02:15 W 5 10.00 A Few Clouds FEW041 75.2 71.6 89% 75 29.94 0.0
02 01:55 S 7 10.00 A Few Clouds FEW045 73.4 71.6 83.1 72.5 94% 29.92 0.0
02 01:36 S 2 10.00 Partly Cloudy SCT045 73.4 71.6 94% 29.93 0.0
02 01:15 SW 5 10.00 A Few Clouds FEW047 75.2 71.6 89% 75 29.94 0.0
02 00:55 S 6 10.00 Fair CLR 75.2 71.6 89% 75 29.93 0.0
02 00:35 S 5 10.00 Fair CLR 75.2 73.4 94% 74 29.93 0.0
02 00:15 SW 6 10.00 Fair CLR 75.2 73.4 94% 74 29.94 0.0
01 23:55 SW 5 10.00 Fair CLR 75.2 73.4 94% 74 29.94 0.0
01 23:35 SW 5 10.00 Fair CLR 77 73.4 89% 78 29.93 0.0
01 22:55 SW 6 10.00 Partly Cloudy SCT120 75.2 73.4 94% 74 29.94 0.0
01 22:35 SW 5 10.00 Fair CLR 77 73.4 89% 78 29.94 0.0
01 22:15 SW 7 10.00 Fair CLR 77 73.4 89% 78 29.94 0.0
01 21:55 SW 6 10.00 Fair CLR 77 73.4 89% 78 29.94 0.0
01 21:35 SW 5 10.00 Fair CLR 78.8 73.4 84% 82 29.93 0.0
01 21:15 SW 6 10.00 Fair CLR 78.8 73.4 84% 82 29.93 0.0
01 20:56 SW 5 10.00 Fair CLR 78.8 73.4 84% 82 29.93 0.0
01 20:35 SW 7 10.00 Fair CLR 80.6 73.4 79% 85 29.93 0.0
01 20:15 SW 6 10.00 Fair CLR 80.6 73.4 79% 85 29.93 0.0
01 19:55 SW 6 10.00 Fair CLR 82.4 73.4 91 82.9 74% 88 29.93 0.0
01 19:35 SW 6 10.00 Fair CLR 84.2 75.2 74% 92 29.93 0.0
01 19:15 SW 9 10.00 Fair CLR 86 73.4 66% 93 29.93 0.0
01 18:55 SW 12 10.00 A Few Clouds FEW034 86 73.4 66% 93 29.93 0.0
01 18:36 SW 10 10.00 Partly Cloudy SCT034 87.8 73.4 62% 96 29.94 0.0
01 18:15 W 10 10.00 Partly Cloudy SCT036 SCT042 87.8 75.2 66% 98 29.93 0.0
01 17:55 W 10 10.00 A Few Clouds FEW038 87.8 73.4 62% 96 29.93 0.0
01 17:35 SW 10 10.00 A Few Clouds FEW036 89.6 73.4 59% 98 29.92 0.0
01 17:15 SW 8 10.00 Partly Cloudy SCT036 SCT049 89.6 75.2 63% 100 29.91 0.0
01 16:55 W 10 10.00 Partly Cloudy SCT036 SCT044 SCT050 89.6 75.2 63% 100 29.92 0.0
01 16:35 SW 10 10.00 Partly Cloudy SCT034 SCT040 SCT050 89.6 75.2 63% 100 29.92 0.0
01 16:16 SW 8 10.00 Partly Cloudy SCT036 SCT043 89.6 75.2 63% 100 29.93 0.0
01 15:55 SW 7 10.00 A Few Clouds FEW036 FEW043 89.6 75.2 63% 100 29.93 0.0
01 15:35 SW 10 10.00 A Few Clouds FEW034 FEW044 89.6 75.2 63% 100 29.93 0.0
01 15:15 W 9 G 16 10.00 Partly Cloudy SCT032 89.6 75.2 63% 100 29.93 0.0
01 14:55 W 13 10.00 Overcast BKN032 OVC046 87.8 75.2 66% 98 29.94 0.0
01 14:35 SW 10 10.00 Mostly Cloudy BKN032 BKN044 89.6 75.2 63% 100 29.94 0.0
01 14:15 Vrbl 5 10.00 Mostly Cloudy BKN030 BKN038 87.8 75.2 66% 98 29.94 0.0
01 13:56 SW 8 10.00 Mostly Cloudy BKN030 BKN040 87.8 75.2 66% 98 29.94 0.0
01 13:35 SW 7 10.00 Mostly Cloudy BKN028 87.8 75.2 66% 98 29.93 0.0
01 13:15 SW 9 10.00 Mostly Cloudy SCT024 BKN030 87.8 75.2 66% 98 29.94 0.0
01 12:55 SW 6 10.00 Partly Cloudy SCT022 SCT027 86 77 75% 97 29.95 0.0
01 12:35 Vrbl 2 10.00 Partly Cloudy SCT022 84.2 75.2 74% 92 29.95 0.0
01 12:15 Vrbl 5 10.00 Mostly Cloudy BKN022 84.2 75.2 74% 92 29.96 0.0
01 11:55 W 7 10.00 Mostly Cloudy BKN018 84.2 75.2 74% 92 29.96 0.0
01 11:36 Vrbl 3 10.00 Partly Cloudy SCT016 84.2 75.2 74% 92 29.96 0.0
01 11:15 Vrbl 1 10.00 A Few Clouds FEW016 82.4 73.4 74% 88 29.97 0.0
01 10:55 SW 2 10.00 Fair CLR 80.6 73.4 79% 85 29.96 0.0
01 10:35 SW 6 10.00 Fair CLR 80.6 73.4 79% 85 29.96 0.0
01 10:15 W 3 10.00 Fair CLR 80.6 73.4 79% 85 29.96 0.0
01 09:55 W 5 10.00 Fair CLR 78.8 73.4 84% 82 29.96 0.0
01 09:35 W 5 8.00 Fair CLR 77 73.4 89% 78 29.96 0.0
01 09:16 SW 3 7.00 Fog/Mist CLR 75.2 71.6 89% 75 29.96 0.0
01 08:55 SW 2 5.00 Fog/Mist CLR 73.4 71.6 94% 29.97 0.0
01 08:35 SW 3 4.00 Fog/Mist CLR 71.6 71.6 100% 29.97 0.0
01 08:15 W 1 1.75 Fog/Mist CLR 69.8 69.8 100% 29.96 0.0
01 07:55 Calm 1.25 Fog/Mist CLR 68 68 71.6 66.9 100% 29.95 0.0
01 07:35 S 2 1.00 Fog/Mist CLR 68 66.2 94% 29.94 0.0
01 07:15 S 2 1.50 Fog/Mist CLR 68 68 100% 29.94 0.0
01 06:56 S 2 1.75 Fog/Mist CLR 68 68 100% 29.93 0.0
01 06:35 S 3 3.00 Fog/Mist CLR 68 68 100% 29.93 0.0
01 06:15 S 2 3.00 Fog/Mist CLR 68 68 100% 29.93 0.0
01 05:55 S 3 4.00 Fog/Mist CLR 68 68 100% 29.93 0.0
01 05:35 Calm 5.00 Fog/Mist CLR 69.8 69.8 100% 29.94 0.0
01 05:15 SW 3 5.00 Fog/Mist CLR 69.8 68 94% 29.93 0.0
01 04:55 S 2 4.00 Fog/Mist CLR 68 68 100% 29.93 0.0
01 04:36 S 3 5.00 Fog/Mist CLR 69.8 68 94% 29.93 0.0
01 04:15 SW 3 6.00 Fog/Mist CLR 69.8 69.8 100% 29.93 0.0
01 03:55 SW 3 4.00 Fog/Mist CLR 68 68 100% 29.92 0.0
01 03:35 SW 3 6.00 Fog/Mist CLR 69.8 68 94% 29.92 0.0
01 03:15 SW 2 7.00 Fog/Mist CLR 69.8 69.8 100% 29.92 0.0
01 02:55 SW 5 9.00 Fair CLR 71.6 69.8 94% 29.92 0.0
01 02:35 SW 5 10.00 Fair CLR 71.6 69.8 94% 29.92 0.0
01 02:16 SW 5 10.00 Fair CLR 71.6 69.8 94% 29.92 0.0
01 01:55 SW 3 10.00 Fair CLR 71.6 69.8 77 71.6 94% 29.93 0.0
01 01:35 SW 5 10.00 Fair CLR 71.6 69.8 94% 29.93 0.0
01 01:15 SW 3 10.00 Fair CLR 71.6 69.8 94% 29.93 0.0
01 00:55 SW 3 10.00 Fair CLR 71.6 69.8 94% 29.93 0.0
01 00:35 SW 3 10.00 Fair CLR 73.4 69.8 89% 29.93 0.0
01 00:15 SW 6 10.00 Fair CLR 73.4 69.8 89% 29.93 0.0
31 23:56 SW 6 10.00 Fair CLR 73.4 69.8 89% 29.93 0.0
31 23:35 SW 5 10.00 Fair CLR 75.2 69.8 83% 75 29.93 0.0
31 23:15 SW 6 10.00 Fair CLR 77 69.8 79% 79 29.92 0.0
31 22:55 SW 8 10.00 Fair CLR 77 69.8 79% 79 29.93 0.0
31 22:35 SW 9 10.00 Fair CLR 77 69.8 79% 79 29.92 0.0
31 22:15 SW 8 10.00 Fair CLR 77 69.8 79% 79 29.92 0.0
31 21:55 S 8 10.00 Fair CLR 75.2 69.8 83% 75 29.92 0.0
31 21:36 SW 8 10.00 Fair CLR 75.2 69.8 83% 75 29.93 0.0
31 21:15 S 6 10.00 Fair CLR 75.2 69.8 83% 75 29.93 0.0
31 20:55 SW 6 10.00 Fair CLR 75.2 68 78% 76 29.92 0.0
31 20:35 S 6 10.00 Fair CLR 75.2 68 78% 76 29.92 0.0
31 20:15 SW 6 10.00 Fair CLR 75.2 68 78% 76 29.91 0.0
31 19:55 SW 7 10.00 Fair CLR 77 68 81.5 76.6 74% 79 29.91 0.0
31 19:35 SW 7 10.00 Fair CLR 77 68 74% 79 29.91 0.0
31 19:16 SW 7 10.00 Fair CLR 77 68 74% 79 29.91 0.0
31 18:55 SW 12 10.00 Fair CLR 78.8 68 70% 81 29.91 0.0
31 18:35 SW 14 G 20 10.00 Fair CLR 80.6 68 66% 83 29.9 0.0
31 18:15 SW 14 10.00 A Few Clouds FEW095 80.6 68 66% 83 29.9 0.0
31 17:55 S 12 10.00 A Few Clouds FEW100 80.6 69.8 70% 84 29.9 0.0
31 17:35 SW 12 10.00 Mostly Cloudy BKN100 80.6 69.8 70% 84 29.91 0.0
31 17:15 S 12 G 18 10.00 Mostly Cloudy BKN100 78.8 69.8 74% 81 29.92 0.0
31 16:56 S 9 10.00 Mostly Cloudy BKN110 78.8 69.8 74% 81 29.92 0.0
31 16:35 S 8 10.00 Partly Cloudy SCT110 77 69.8 79% 79 29.92 0.0
31 16:15 S 9 10.00 Light Rain FEW030 FEW034 BKN100 77 69.8 79% 79 29.92 0.0
31 15:55 S 10 10.00 Mostly Cloudy BKN100 BKN120 78.8 71.6 79% 82 29.94 0.0
31 15:35 S 8 10.00 Mostly Cloudy BKN110 77 71.6 83% 78 29.94 0.0
31 15:15 S 8 10.00 Fair CLR 78.8 69.8 74% 81 29.95 0.0
31 14:55 S 9 10.00 Fair CLR 78.8 69.8 74% 81 29.96 0.0
31 14:36 S 10 10.00 Fair CLR 80.6 71.6 74% 85 29.96 0.0
31 14:15 S 3 10.00 Fair CLR 78.8 71.6 79% 82 29.98 0.0
31 13:35 Vrbl 5 10.00 Fair CLR 75.2 69.8 83% 75 29.97 0.0
31 13:15 S 10 10.00 Partly Cloudy SCT090 75.2 69.8 83% 75 29.97 0.0
31 12:55 S 10 10.00 Overcast OVC090 75.2 69.8 83% 75 29.98 0.0
31 12:35 S 10 10.00 Overcast OVC090 73.4 69.8 89% 29.98 0.0
31 12:16 S 8 10.00 Overcast OVC090 73.4 69.8 89% 29.99 0.0
31 11:55 SE 6 10.00 Overcast OVC090 71.6 69.8 94% 30 0.0 0.06
31 11:35 S 8 7.00 Fog/Mist FEW030 FEW042 OVC090 69.8 69.8 100% 30.01 0.0
31 11:15 SE 5 4.00 Light Rain Fog/Mist SCT032 SCT050 OVC080 69.8 68 94% 30.01 0.0
31 10:55 E 2 1.00 Rain Fog/Mist SCT055 BKN065 OVC090 69.8 68 94% 30.02 0.0 0.08
31 10:35 W 5 6.00 Light Rain Fog/Mist FEW065 SCT080 OVC090 69.8 68 94% 30.04 0.0
31 10:15 Calm 3.00 Light Rain Fog/Mist FEW065 OVC090 69.8 68 94% 30.02 0.0
31 09:56 NW 1 6.00 Light Rain Fog/Mist SCT065 OVC090 69.8 68 94% 30.03 0.0
31 09:35 NW 5 6.00 Light Rain Fog/Mist OVC095 69.8 68 94% 30.04 0.0
31 09:15 SW 2 10.00 Overcast OVC095 69.8 68 94% 30.02 0.0
31 08:55 S 3 9.00 Mostly Cloudy BKN095 BKN120 69.8 68 94% 30.01 0.0
31 08:35 S 2 10.00 Overcast BKN095 OVC120 69.8 68 94% 30 0.0
31 08:15 S 3 8.00 Overcast FEW095 OVC120 68 68 100% 29.99 0.0
31 07:55 SE 3 7.00 Fog/Mist FEW100 BKN120 68 66.2 69.8 65.7 94% 29.99 0.0
31 07:36 S 3 7.00 Fog/Mist SCT110 68 66.2 94% 29.99 0.0
31 07:15 S 3 8.00 Mostly Cloudy SCT100 BKN120 68 66.2 94% 29.98 0.0
31 06:55 S 5 10.00 Mostly Cloudy BKN100 BKN120 68 66.2 94% 29.98 0.0
31 06:35 S 5 10.00 Overcast SCT100 OVC120 68 66.2 94% 29.99 0.0
31 06:15 S 5 10.00 Mostly Cloudy BKN120 68 66.2 94% 29.99 0.0
31 05:55 SW 3 10.00 Overcast OVC120 68 66.2 94% 29.99 0.0
31 05:35 SW 3 10.00 Overcast OVC110 68 66.2 94% 29.99 0.0
31 05:16 S 3 10.00 Overcast OVC110 68 66.2 94% 29.99 0.0
31 04:55 SW 5 10.00 Overcast OVC110 68 66.2 94% 29.99 0.0
31 04:35 SW 5 10.00 Partly Cloudy SCT100 66.2 64.4 94% 29.99 0.0
31 04:15 SW 2 10.00 Fair CLR 66.2 64.4 94% 29.99 0.0
31 03:55 SW 5 10.00 Fair CLR 66.2 64.4 94% 29.98 0.0
31 03:35 S 2 10.00 Fair CLR 68 66.2 94% 29.98 0.0
31 03:15 S 3 8.00 Fair CLR 68 66.2 94% 29.98 0.0
31 02:56 S 6 10.00 Fair CLR 68 66.2 94% 29.98 0.0
31 02:35 S 7 10.00 Fair CLR 68 66.2 94% 29.99 0.0
31 02:15 S 3 10.00 Fair CLR 69.8 66.2 88% 30 0.0
31 01:55 S 6 10.00 Fair CLR 69.8 66.2 78.3 69.1 88% 30 0.0
31 01:35 S 8 10.00 Fair CLR 69.8 66.2 88% 30 0.0
31 01:15 S 8 10.00 Fair CLR 69.8 66.2 88% 30 0.0
31 00:55 S 8 10.00 Fair CLR 69.8 66.2 88% 30 0.0
31 00:36 S 7 10.00 Fair CLR 69.8 66.2 88% 30.01 0.0
31 00:15 S 6 10.00 Partly Cloudy SCT095 69.8 68 94% 30 0.0
30 23:55 S 5 10.00 Mostly Cloudy BKN095 71.6 68 88% 30 0.0
30 23:35 S 6 10.00 Overcast OVC085 71.6 68 88% 30 0.0
30 23:15 SW 6 10.00 Mostly Cloudy BKN085 73.4 68 83% 30.01 0.0
30 22:55 SW 6 10.00 Overcast OVC085 73.4 68 83% 30 0.0
30 22:35 SW 3 10.00 Overcast OVC085 73.4 68 83% 30 0.0
30 22:16 SW 5 10.00 Overcast OVC085 73.4 66.2 78% 29.99 0.0
30 21:55 SW 5 10.00 Overcast OVC085 73.4 66.2 78% 29.99 0.0
30 21:35 SW 5 10.00 Partly Cloudy SCT085 73.4 66.2 78% 29.99 0.0
30 21:15 SW 5 10.00 Fair CLR 73.4 66.2 78% 29.98 0.0
30 20:55 SW 6 10.00 Fair CLR 75.2 66.2 74% 77 29.97 0.0
30 20:35 SW 8 10.00 Fair CLR 77 66.2 69% 79 29.97 0.0
30 20:15 SW 10 G 16 10.00 Fair CLR 77 66.2 69% 79 29.96 0.0
30 19:56 W 8 10.00 Fair CLR 78.8 66.2 65% 81 29.96 0.0
30 19:35 W 10 10.00 Partly Cloudy SCT042 78.8 66.2 65% 81 29.96 0.0
30 19:15 W 6 10.00 Mostly Cloudy BKN044 80.6 66.2 62% 83 29.96 0.0
30 18:55 SW 7 10.00 Mostly Cloudy BKN046 BKN065 80.6 66.2 62% 83 29.95 0.0
30 18:35 S 10 10.00 Fair CLR 80.6 66.2 62% 83 29.94 0.0
30 18:15 S 12 10.00 Fair CLR 80.6 68 66% 83 29.94 0.0
30 17:55 S 10 G 17 10.00 A Few Clouds FEW075 82.4 68 62% 85 29.96 0.0
30 17:36 S 10 10.00 Partly Cloudy FEW035 SCT080 82.4 68 62% 85 29.96 0.0
30 17:15 S 10 G 20 10.00 Mostly Cloudy FEW037 BKN080 82.4 68 62% 85 29.97 0.0
30 16:55 SW 8 10.00 Mostly Cloudy FEW036 BKN080 BKN100 82.4 68 62% 85 29.97 0.0
30 16:35 SW 13 G 20 10.00 Mostly Cloudy FEW036 SCT080 BKN095 82.4 68 62% 85 29.98 0.0
30 16:15 S 9 10.00 Partly Cloudy SCT095 80.6 68 66% 83 29.98 0.0
30 15:55 S 8 10.00 A Few Clouds FEW095 80.6 68 66% 83 29.98 0.0
30 15:35 SW 13 10.00 A Few Clouds FEW027 80.6 68 66% 83 29.98 0.0
30 15:16 SW 9 10.00 A Few Clouds FEW026 FEW085 80.6 68 66% 83 29.98 0.0
30 14:55 S 12 10.00 Partly Cloudy FEW026 FEW031 SCT095 78.8 68 70% 81 29.98 0.0
30 14:35 S 12 G 17 10.00 Partly Cloudy FEW026 FEW030 SCT095 78.8 68 70% 81 29.98 0.0
30 14:15 SW 12 10.00 Partly Cloudy FEW022 SCT027 SCT080 78.8 68 70% 81 29.99 0.0
30 13:55 SW 8 10.00 Overcast SCT022 OVC080 77 68 77.2 64.6 74% 79 29.99 0.0
30 13:35 SW 9 10.00 Overcast FEW019 OVC080 75.2 68 78% 76 29.99 0.0
30 13:15 SW 10 10.00 Overcast BKN019 OVC080 73.4 66.2 78% 30.01 0.0
30 12:56 SW 12 10.00 Overcast SCT017 OVC080 73.4 66.2 78% 30.01 0.0
Date Time (edt) Wind (mph) Vis. (mi.) Weather Sky Cond. Air Dwpt Max. Min. Relative Humidity Wind Chill (°F) Heat Index (°F) altimeter (in) sea level (mb) 1 hr 3 hr 6 hr
6 hour
Temperature (ºF) Pressure Precipitation (in)